Data for 06/06/2005

Time Sea-Level Adjusted Pressure Absolute Pressure Temperature Relative Humidity Dew Point   
(mb) (inHg) (mb) (inHg) (C) (F) (%) (C) (F)
00:05 1011 29.85 840 24.81 10.4 50.8 85 8 46.3
00:10 1011 29.85 840 24.81 10.3 50.5 85 7.8 46.1
00:15 1011 29.85 840 24.81 10.3 50.5 84 7.7 45.9
00:20 1011 29.85 840 24.81 10.2 50.3 86 8 46.4
00:25 1011 29.85 840 24.81 10.1 50.2 87 8.1 46.6
00:30 1011 29.85 840 24.81 10 49.9 89 8.2 46.8
00:35 1011 29.85 840 24.81 9.9 49.8 88 8 46.4
00:40 1011 29.85 840 24.81 9.7 49.4 90 8.1 46.7
00:45 1011 29.85 841 24.83 9.6 49.2 91 8.1 46.6
00:50 1011 29.85 841 24.83 9.4 49 92 8.3 46.9
00:55 1011 29.85 841 24.83 9.4 49 91 8 46.4
01:00 1011 29.85 841 24.83 9.3 48.8 90 7.8 46
01:05 1011 29.85 840 24.81 9.2 48.5 90 7.5 45.6
01:10 1011 29.85 840 24.81 8.9 48.1 90 7.4 45.4
01:15 1011 29.85 840 24.81 8.9 48 90 7.3 45.2
01:20 1011 29.85 840 24.81 8.8 47.8 90 7.3 45.1
01:25 1011 29.85 840 24.81 8.8 47.9 90 7.4 45.2
01:30 1011 29.85 840 24.81 8.9 47.9 90 7.4 45.2
01:35 1011 29.85 840 24.81 8.6 47.5 91 7.3 45.1
01:40 1011 29.85 840 24.81 8.7 47.6 91 7.3 45.1
01:45 1011 29.85 840 24.81 8.8 47.8 90 7.2 45
01:50 1011 29.85 840 24.81 8.7 47.6 91 7.2 45
01:55 1011 29.85 840 24.81 8.7 47.6 91 7.3 45.1
02:00 1011 29.85 840 24.81 8.7 47.7 90 7.1 44.8
02:05 1011 29.85 840 24.81 8.6 47.4 91 7.2 44.9
02:10 1011 29.85 840 24.81 8.4 47.2 92 7.2 44.9
02:15 1011 29.85 840 24.81 8.3 47 91 6.9 44.5
02:20 1011 29.85 840 24.81 8.2 46.8 91 6.9 44.3
02:25 1010 29.83 840 24.81 8.2 46.7 91 6.8 44.2
02:30 1010 29.83 840 24.81 8.2 46.8 92 7 44.5
02:35 1010 29.83 840 24.81 8.4 47 91 7 44.5
02:40 1010 29.83 840 24.81 8.4 47 91 6.9 44.5
02:45 1010 29.83 840 24.81 8.3 46.9 91 6.9 44.4
02:50 1010 29.83 840 24.81 8.3 46.9 91 6.9 44.4
02:55 1010 29.83 840 24.81 8.2 46.8 92 7 44.6
03:00 1010 29.83 839 24.78 8.3 47 91 7 44.7
03:05 1010 29.83 839 24.78 8.3 47 91 7 44.7
03:10 1010 29.83 839 24.78 8.5 47.2 92 7.3 45.1
03:15 1010 29.83 839 24.78 8.4 47.2 93 7.3 45.1
03:20 1010 29.83 839 24.78 8.4 47.1 93 7.3 45.1
03:25 1010 29.83 839 24.78 8.3 47 93 7.2 45
03:30 1010 29.83 839 24.78 8.3 46.9 93 7.2 44.9
03:35 1010 29.83 839 24.78 8.2 46.8 94 7.3 45.1
03:40 1010 29.83 839 24.78 8.3 46.9 93 7.2 44.9
03:45 1010 29.83 839 24.78 8.2 46.7 94 7.2 45
03:50 1010 29.83 839 24.78 8.1 46.6 94 7.3 45.1
03:55 1010 29.83 839 24.78 8.1 46.6 95 7.3 45.1
04:00 1010 29.83 839 24.78 8.1 46.6 95 7.4 45.4
04:05 1010 29.83 839 24.78 8.1 46.6 95 7.4 45.3
04:10 1010 29.83 839 24.78 8.1 46.6 95 7.4 45.4
04:15 1010 29.83 839 24.78 8.1 46.6 96 7.4 45.4
04:20 1010 29.83 839 24.78 8.1 46.5 96 7.4 45.3
04:25 1010 29.83 839 24.78 8.2 46.7 96 7.5 45.6
04:30 1010 29.83 839 24.78 8.1 46.7 96 7.5 45.6
04:35 1010 29.83 839 24.78 8.2 46.7 96 7.6 45.7
04:40 1010 29.83 839 24.78 8.1 46.6 96 7.6 45.6
04:45 1010 29.83 839 24.78 8.1 46.6 97 7.6 45.6
04:50 1010 29.83 839 24.78 8.1 46.6 96 7.5 45.5
04:55 1010 29.83 839 24.78 8.1 46.6 96 7.5 45.5
05:00 1010 29.83 839 24.78 8.1 46.6 96 7.5 45.6
05:05 1010 29.83 839 24.78 8.1 46.5 96 7.5 45.4
05:10 1010 29.83 839 24.78 8 46.5 96 7.5 45.5
05:15 1010 29.83 839 24.78 8 46.4 96 7.4 45.4
05:20 1010 29.83 840 24.81 7.9 46.3 97 7.4 45.3
05:25 1011 29.85 840 24.81 8 46.3 97 7.5 45.5
05:30 1011 29.85 840 24.81 7.9 46.2 97 7.4 45.4
05:35 1011 29.85 840 24.81 7.9 46.2 96 7.3 45.2
05:40 1011 29.85 840 24.81 7.8 46 95 7 44.6
05:45 1011 29.85 840 24.81 7.8 46 94 6.9 44.4
05:50 1011 29.85 840 24.81 7.6 45.7 94 6.7 44.1
05:55 1011 29.85 840 24.81 7.7 45.8 94 6.7 44.1
06:00 1011 29.85 840 24.81 7.7 45.8 94 6.8 44.3
06:05 1011 29.85 840 24.81 7.8 46 95 7.1 44.7
06:10 1011 29.85 840 24.81 8 46.3 94 7.1 44.7
06:15 1011 29.85 840 24.81 8.1 46.6 94 7.2 44.9
06:20 1011 29.85 840 24.81 8.3 46.9 93 7.2 44.9
06:25 1011 29.85 840 24.81 8.1 46.6 91 6.8 44.3
06:30 1011 29.85 840 24.81 8.1 46.6 92 6.9 44.4
06:35 1011 29.85 840 24.81 8.1 46.5 91 6.7 44.1
06:40 1011 29.85 840 24.81 8.1 46.5 92 6.8 44.3
06:45 1011 29.85 840 24.81 8 46.4 91 6.7 44
06:50 1011 29.85 840 24.81 7.7 45.9 91 6.4 43.5
06:55 1011 29.85 840 24.81 7.7 45.8 91 6.3 43.3
07:00 1011 29.85 840 24.81 7.7 45.8 89 6 42.9
07:05 1011 29.85 840 24.81 7.7 45.9 90 6.2 43.1
07:10 1011 29.85 840 24.81 7.7 45.8 90 6.2 43.1
07:15 1011 29.85 840 24.81 7.8 46 88 5.9 42.5
07:20 1011 29.85 840 24.81 7.9 46.3 86 5.8 42.5
07:25 1011 29.85 840 24.81 8 46.3 86 5.8 42.4
07:30 1011 29.85 840 24.81 8.1 46.5 84 5.6 42
07:35 1011 29.85 840 24.81 8.1 46.6 86 5.9 42.7
07:40 1011 29.85 840 24.81 8.3 47 84 5.7 42.3
07:45 1011 29.85 840 24.81 8.4 47.2 82 5.6 42.1
07:50 1011 29.85 840 24.81 8.5 47.3 79 5.1 41.1
07:55 1011 29.85 840 24.81 8.6 47.6 79 5.3 41.5
08:00 1010 29.83 840 24.81 8.8 47.8 74 4.4 40
08:05 1010 29.83 840 24.81 8.9 48 82 6 42.8
08:10 1010 29.83 840 24.81 8.6 47.4 85 6.2 43.1
08:15 1010 29.83 840 24.81 8.6 47.4 80 5.3 41.6
08:20 1010 29.83 840 24.81 8.6 47.5 86 6.4 43.5
08:25 1010 29.83 840 24.81 8.4 47 86 6.2 43.1
08:30 1010 29.83 840 24.81 8.5 47.3 88 6.6 43.8
08:35 1010 29.83 839 24.78 8.6 47.6 88 6.8 44.2
08:40 1010 29.83 839 24.78 8.7 47.6 81 5.6 42.2
08:45 1010 29.83 839 24.78 8.5 47.3 80 5.2 41.4
08:50 1010 29.83 839 24.78 8.4 47.2 82 5.6 42.1
08:55 1010 29.83 839 24.78 8.8 47.8 82 5.9 42.6
09:00 1010 29.83 839 24.78 9 48.2 81 5.9 42.7
09:05 1010 29.83 839 24.78 9.1 48.3 81 5.9 42.7
09:10 1010 29.83 839 24.78 9.5 49.1 81 6.3 43.4
09:15 1010 29.83 839 24.78 9.7 49.5 81 6.6 43.9
09:20 1010 29.83 839 24.78 10 50 79 6.6 43.9
09:25 1010 29.83 839 24.78 10.1 50.1 81 6.9 44.5
09:30 1010 29.83 839 24.78 10.3 50.5 79 6.8 44.3
09:35 1010 29.83 839 24.78 10.7 51.2 78 7.1 44.8
09:40 1010 29.83 839 24.78 10.3 50.5 83 7.5 45.6
09:45 1010 29.83 839 24.78 10.2 50.4 79 6.7 44
09:50 1010 29.83 839 24.78 10.5 50.9 77 6.7 44.1
09:55 1010 29.83 839 24.78 10.6 51 78 6.9 44.5
10:00 1010 29.83 839 24.78 10.7 51.2 77 6.8 44.2
10:05 1010 29.83 839 24.78 10.9 51.6 75 6.6 44
10:10 1010 29.83 839 24.78 11 51.7 74 6.6 43.8
10:15 1010 29.83 839 24.78 11.1 52 75 6.8 44.3
10:20 1010 29.83 839 24.78 11.4 52.5 73 6.8 44.2
10:25 1010 29.83 839 24.78 11.7 53.1 69 6.2 43.2
10:30 1010 29.83 839 24.78 11.8 53.2 67 6 42.8
10:35 1010 29.83 839 24.78 11.9 53.4 67 5.9 42.6
10:40 1010 29.83 839 24.78 12 53.6 68 6.3 43.3
10:45 1010 29.83 839 24.78 12.1 53.7 65 5.7 42.2
10:50 1010 29.83 839 24.78 11.9 53.3 66 5.8 42.5
10:55 1010 29.83 839 24.78 12 53.7 66 5.9 42.5
11:00 1010 29.83 839 24.78 12.4 54.3 64 5.9 42.6
11:05 1010 29.83 839 24.78 12.2 54 64 5.7 42.3
11:10 1010 29.83 839 24.78 12.3 54.1 64 5.7 42.3
11:15 1010 29.83 839 24.78 12.7 54.9 62 5.6 42.1
11:20 1010 29.83 839 24.78 12.8 55.1 61 5.5 42
11:25 1010 29.83 839 24.78 13.3 55.9 59 5.6 42
11:30 1010 29.83 839 24.78 12.6 54.6 63 5.7 42.3
11:35 1010 29.83 839 24.78 13.2 55.7 60 5.6 42.1
11:40 1010 29.83 839 24.78 13.6 56.5 59 5.7 42.3
11:45 1010 29.83 839 24.78 14.2 57.5 57 5.8 42.4
11:50 1010 29.83 839 24.78 13.8 56.8 60 6.1 43
11:55 1010 29.83 839 24.78 13.2 55.7 61 5.9 42.6
12:00 1010 29.83 839 24.78 12.6 54.6 65 6.1 43
12:05 1010 29.83 839 24.78 12.1 53.9 65 5.9 42.5
12:10 1010 29.83 839 24.78 11.9 53.4 68 6.2 43.2
12:15 1010 29.83 839 24.78 11.6 52.8 71 6.6 43.8
12:20 1010 29.83 839 24.78 11.5 52.7 70 6.2 43.2
12:25 1009 29.8 839 24.78 11.5 52.7 71 6.5 43.8
12:30 1009 29.8 839 24.78 11.4 52.4 72 6.6 43.9
12:35 1009 29.8 839 24.78 11.3 52.3 74 6.7 44.1
12:40 1009 29.8 839 24.78 11.3 52.3 72 6.4 43.4
12:45 1009 29.8 839 24.78 11.4 52.5 70 6.2 43.2
12:50 1009 29.8 839 24.78 11.6 52.8 68 6 42.7
12:55 1009 29.8 839 24.78 11.1 51.9 73 6.5 43.6
13:00 1009 29.8 839 24.78 11.4 52.4 70 6.1 43
13:05 1009 29.8 839 24.78 11.5 52.8 68 5.8 42.4
13:10 1009 29.8 838 24.75 12 53.5 65 5.5 42
13:15 1009 29.8 838 24.75 12.3 54.1 66 6.3 43.3
13:20 1009 29.8 838 24.75 11.8 53.2 71 6.6 43.9
13:25 1009 29.8 838 24.75 11.2 52.2 69 5.9 42.5
13:30 1009 29.8 838 24.75 11.9 53.4 67 5.9 42.6
13:35 1009 29.8 838 24.75 12.7 54.8 61 5.3 41.6
13:40 1009 29.8 838 24.75 13.1 55.7 59 5.4 41.8
13:45 1009 29.8 838 24.75 12.5 54.5 62 5.5 41.9
13:50 1009 29.8 838 24.75 12.2 54 66 6.1 43
13:55 1009 29.8 838 24.75 12.3 54.1 60 4.7 40.5
14:00 1009 29.8 838 24.75 13.2 55.7 58 5 41.1
14:05 1009 29.8 838 24.75 13.2 55.8 60 5.6 42.1
14:10 1009 29.8 838 24.75 13.1 55.5 61 5.7 42.2
14:15 1009 29.8 838 24.75 13 55.3 62 5.9 42.6
14:20 1009 29.8 838 24.75 12.9 55.2 61 5.5 41.9
14:25 1009 29.8 838 24.75 12.5 54.4 63 5.6 42.1
14:30 1009 29.8 838 24.75 11.9 53.4 64 5.4 41.8
14:35 1009 29.8 838 24.75 12 53.6 66 6 42.7
14:40 1009 29.8 838 24.75 12.1 53.8 64 5.6 42
14:45 1009 29.8 838 24.75 12.5 54.5 61 5.3 41.5
14:50 1009 29.8 838 24.75 12.5 54.4 62 5.5 41.8
14:55 1009 29.8 838 24.75 12.5 54.5 59 4.7 40.5
15:00 1009 29.8 838 24.75 12.5 54.4 61 5.1 41.2
15:05 1009 29.8 838 24.75 12.4 54.2 61 5 41.1
15:10 1009 29.8 839 24.78 12.4 54.4 61 5.1 41.3
15:15 1009 29.8 839 24.78 12.3 54.2 60 4.9 40.8
15:20 1010 29.83 839 24.78 12.3 54.1 61 5.1 41.2
15:25 1010 29.83 839 24.78 12.3 54.1 64 5.7 42.2
15:30 1010 29.83 839 24.78 12.3 54.2 66 6.2 43.2
15:35 1009 29.8 839 24.78 12.1 53.8 67 6.3 43.3
15:40 1009 29.8 839 24.78 12.2 53.9 68 6.6 43.8
15:45 1010 29.83 839 24.78 12.1 53.7 72 7.3 45.1
15:50 1010 29.83 839 24.78 10.9 51.5 81 7.8 46
15:55 1010 29.83 839 24.78 9.1 48.3 88 7.1 44.8
16:00 1010 29.83 839 24.78 8.4 47.2 88 6.6 43.9
16:05 1010 29.83 839 24.78 8.4 47 86 6.2 43.1
16:10 1010 29.83 839 24.78 8.5 47.2 86 6.2 43.2
16:15 1010 29.83 839 24.78 8.8 47.8 85 6.5 43.7
16:20 1010 29.83 839 24.78 9.2 48.5 82 6.3 43.4
16:25 1010 29.83 839 24.78 9.3 48.7 82 6.3 43.4
16:30 1010 29.83 839 24.78 9.2 48.5 83 6.4 43.6
16:35 1010 29.83 839 24.78 9 48.2 83 6.3 43.4
16:40 1010 29.83 839 24.78 8.9 48 86 6.7 44.1
16:45 1010 29.83 839 24.78 8.8 47.9 90 7.3 45.1
16:50 1010 29.83 840 24.81 8.5 47.3 92 7.3 45.2
16:55 1010 29.83 840 24.81 8.5 47.2 89 6.8 44.3
17:00 1011 29.85 840 24.81 8.3 46.9 90 6.7 44.1
17:05 1011 29.85 840 24.81 8.1 46.6 90 6.6 43.9
17:10 1011 29.85 840 24.81 8.2 46.7 91 6.7 44.1
17:15 1010 29.83 840 24.81 8.3 46.9 90 6.8 44.3
17:20 1010 29.83 840 24.81 8.2 46.8 90 6.7 44
17:25 1011 29.85 840 24.81 8.2 46.7 88 6.3 43.4
17:30 1011 29.85 840 24.81 8 46.4 87 5.9 42.7
17:35 1011 29.85 840 24.81 7.8 46 88 5.9 42.6
17:40 1011 29.85 840 24.81 7.7 45.9 89 6 42.7
17:45 1011 29.85 840 24.81 7.7 45.9 89 6.1 42.9
17:50 1011 29.85 840 24.81 7.7 45.9 90 6.1 43.1
17:55 1011 29.85 840 24.81 7.8 46 89 6.1 43
18:00 1011 29.85 840 24.81 7.6 45.7 89 5.9 42.5
18:05 1011 29.85 840 24.81 7.5 45.4 90 5.9 42.6
18:10 1011 29.85 840 24.81 7.4 45.3 92 6.1 43
18:15 1011 29.85 840 24.81 7.4 45.4 92 6.3 43.3
18:20 1011 29.85 840 24.81 7.5 45.6 91 6.2 43.2
18:25 1011 29.85 840 24.81 7.7 45.8 91 6.3 43.3
18:30 1011 29.85 840 24.81 7.6 45.7 89 5.9 42.6
18:35 1011 29.85 840 24.81 7.4 45.4 89 5.8 42.4
18:40 1011 29.85 840 24.81 7.4 45.3 89 5.7 42.3
18:45 1011 29.85 840 24.81 7.4 45.2 89 5.7 42.2
18:50 1011 29.85 840 24.81 7.3 45.2 89 5.7 42.2
18:55 1011 29.85 840 24.81 7.3 45.2 90 5.8 42.4
19:00 1011 29.85 840 24.81 7.2 45 89 5.5 42
19:05 1011 29.85 840 24.81 7.1 44.8 89 5.4 41.7
19:10 1011 29.85 840 24.81 7.1 44.8 89 5.4 41.8
19:15 1011 29.85 840 24.81 7.1 44.8 91 5.7 42.2
19:20 1011 29.85 840 24.81 7.1 44.8 90 5.7 42.2
19:25 1011 29.85 840 24.81 7.1 44.7 89 5.4 41.8
19:30 1011 29.85 840 24.81 6.9 44.5 90 5.4 41.8
19:35 1011 29.85 841 24.83 6.9 44.3 92 5.6 42.1
19:40 1011 29.85 841 24.83 6.9 44.4 92 5.7 42.2
19:45 1011 29.85 841 24.83 6.8 44.2 92 5.6 42
19:50 1011 29.85 841 24.83 6.7 44.1 93 5.7 42.2
19:55 1012 29.88 841 24.83 6.8 44.3 92 5.6 42.1
20:00 1011 29.85 841 24.83 6.8 44.2 92 5.5 41.9
20:05 1012 29.88 841 24.83 6.7 44.1 92 5.5 41.8
20:10 1012 29.88 841 24.83 6.8 44.2 91 5.4 41.7
20:15 1012 29.88 841 24.83 6.7 44.1 90 5.2 41.4
20:20 1012 29.88 841 24.83 6.6 44 90 5.2 41.3
20:25 1012 29.88 841 24.83 6.6 43.8 90 5 41
20:30 1012 29.88 841 24.83 6.5 43.8 90 5.1 41.2
20:35 1012 29.88 841 24.83 6.5 43.8 91 5.2 41.3
20:40 1012 29.88 841 24.83 6.6 43.9 89 5 40.9
20:45 1012 29.88 841 24.83 6.6 43.8 90 5 41
20:50 1012 29.88 841 24.83 6.5 43.7 91 5.1 41.2
20:55 1012 29.88 841 24.83 6.5 43.7 91 5.2 41.3
21:00 1012 29.88 841 24.83 6.5 43.6 92 5.2 41.3
21:05 1012 29.88 841 24.83 6.4 43.6 91 5.1 41.1
21:10 1012 29.88 841 24.83 6.2 43.2 91 4.9 40.8
21:15 1012 29.88 841 24.83 6.1 43.1 93 5 41.1
21:20 1012 29.88 841 24.83 6 42.9 93 5 40.9
21:25 1012 29.88 841 24.83 6 42.8 94 5.1 41.3
21:30 1012 29.88 841 24.83 6 42.9 93 5 41
21:35 1012 29.88 841 24.83 5.9 42.7 94 5 41.1
21:40 1012 29.88 841 24.83 5.8 42.5 94 4.9 40.9
21:45 1012 29.88 841 24.83 5.8 42.4 93 4.8 40.6
21:50 1012 29.88 841 24.83 5.7 42.3 93 4.7 40.5
21:55 1012 29.88 841 24.83 5.7 42.2 94 4.8 40.7
22:00 1012 29.88 841 24.83 5.7 42.3 94 4.8 40.7
22:05 1012 29.88 841 24.83 5.8 42.5 93 4.7 40.5
22:10 1012 29.88 842 24.86 5.8 42.5 93 4.8 40.6
22:15 1012 29.88 842 24.86 5.7 42.2 94 4.7 40.5
22:20 1012 29.88 842 24.86 5.5 41.9 95 4.8 40.6
22:25 1012 29.88 842 24.86 5.5 41.9 94 4.6 40.3
22:30 1012 29.88 842 24.86 5.5 42 93 4.5 40.1
22:35 1013 29.91 842 24.86 5.6 42.1 94 4.6 40.4
22:40 1013 29.91 842 24.86 5.7 42.3 94 4.8 40.7
22:45 1013 29.91 842 24.86 5.7 42.3 94 4.9 40.8
22:50 1013 29.91 842 24.86 5.7 42.3 95 5 40.9
22:55 1013 29.91 842 24.86 5.7 42.3 94 4.9 40.9
23:00 1013 29.91 842 24.86 5.6 42.2 95 4.9 40.8
23:05 1012 29.88 842 24.86 5.7 42.2 92 4.5 40.1
23:10 1012 29.88 842 24.86 5.5 42 89 3.8 38.9
23:15 1012 29.88 841 24.83 5.4 41.7 95 4.6 40.3
23:20 1012 29.88 841 24.83 5.4 41.8 94 4.6 40.2
23:25 1012 29.88 842 24.86 5.4 41.8 95 4.7 40.4
23:30 1012 29.88 842 24.86 5.4 41.7 94 4.5 40.1
23:35 1012 29.88 842 24.86 5.5 41.9 94 4.5 40.2
23:40 1012 29.88 842 24.86 5.5 42 93 4.6 40.2
23:45 1012 29.88 842 24.86 5.6 42.2 92 4.5 40.1
23:50 1012 29.88 841 24.83 5.7 42.2 92 4.6 40.2
23:55 1012 29.88 841 24.83 5.8 42.4 91 4.4 39.9
24:00 1012 29.88 842 24.86 5.8 42.4 92 4.6 40.4